Time;durP1;ratioP1;P1;durP2;ratioP2;P2;SDS_P1;SDS_P2;PMS_P1;PMS_P2;Temp;Humidity;BMP_temperature;BMP_pressure;BME280_temperature;BME280_humidity;BME280_pressure;Samples;Min_cycle;Max_cycle;Signal;HPM_P1;HPM_P2
2024/01/03 00:00:29;;;;;;;0.70;0.60;;;9.90;81.30;;;10.92;62.67;95884.44;5070624;28;20056;-58
2024/01/03 00:02:57;;;;;;;1.33;0.80;;;9.90;83.90;;;10.98;63.07;95876.41;5070086;28;20536;-59
2024/01/03 00:05:39;;;;;;;1.37;0.47;;;9.80;85.10;;;10.80;63.03;95873.59;5069905;28;20064;-59
2024/01/03 00:08:27;;;;;;;2.77;0.70;;;9.70;84.80;;;10.69;63.53;95872.34;5070422;28;20051;-59
2024/01/03 00:10:57;;;;;;;1.97;0.77;;;9.60;86.00;;;10.68;63.30;95878.69;5070317;28;20412;-59
2024/01/03 00:13:31;;;;;;;1.37;0.50;;;9.50;86.40;;;10.74;63.51;95867.25;5068344;28;20056;-57
2024/01/03 00:15:59;;;;;;;2.47;0.60;;;9.40;86.00;;;10.83;63.16;95846.53;5070434;28;20119;-57
2024/01/03 00:18:36;;;;;;;0.83;0.60;;;9.50;86.50;;;10.82;63.01;95834.28;5074607;28;20423;-56
2024/01/03 00:21:10;;;;;;;1.90;0.80;;;9.40;85.60;;;10.85;62.28;95831.19;5073954;28;20075;-56
2024/01/03 00:23:48;;;;;;;2.22;0.90;;;9.50;84.10;;;10.87;62.19;95842.44;5074345;28;20072;-56
2024/01/03 00:26:17;;;;;;;0.93;0.57;;;9.50;82.90;;;10.91;61.48;95842.84;5074312;28;20056;-56
2024/01/03 00:28:47;;;;;;;4.03;1.67;;;9.60;81.80;;;10.83;61.09;95855.34;5072092;28;20075;-56
2024/01/03 00:31:41;;;;;;;0.57;0.53;;;9.60;80.40;;;10.84;60.86;95843.69;5055563;28;20044;-55
2024/01/03 00:34:39;;;;;;;2.87;1.00;;;9.70;79.60;;;10.81;60.90;95827.28;5074317;28;20056;-57
2024/01/03 00:37:26;;;;;;;5.40;1.50;;;9.70;79.10;;;10.80;60.53;95823.00;5072738;28;20052;-57
2024/01/03 00:39:58;;;;;;;1.63;0.83;;;9.80;78.90;;;10.95;60.36;95810.28;5073951;28;20155;-56
2024/01/03 00:42:26;;;;;;;1.73;0.80;;;9.80;78.20;;;10.95;60.11;95823.59;5066661;28;20048;-57
2024/01/03 00:44:53;;;;;;;2.00;0.90;;;9.80;78.20;;;11.02;59.83;95842.22;5073842;28;20045;-56
2024/01/03 00:47:22;;;;;;;2.10;0.90;;;9.80;77.80;;;10.92;59.19;95833.84;5064513;28;20044;-57
2024/01/03 00:49:51;;;;;;;3.37;0.80;;;9.80;75.70;;;10.82;59.31;95828.94;5072034;28;20246;-56
2024/01/03 00:52:20;;;;;;;2.30;1.37;;;9.80;76.00;;;10.89;59.32;95855.53;5073965;28;20415;-56
2024/01/03 00:54:48;;;;;;;2.97;1.10;;;9.90;76.00;;;10.88;58.82;95849.41;5073989;28;20048;-56
2024/01/03 00:57:16;;;;;;;3.37;0.87;;;9.90;74.90;;;10.92;59.04;95890.56;5071993;28;20052;-55
2024/01/03 00:59:45;;;;;;;1.17;0.63;;;9.90;75.10;;;10.95;58.90;95858.22;5071813;28;20056;-56
2024/01/03 01:02:13;;;;;;;1.70;1.00;;;10.00;74.00;;;10.99;58.61;95846.13;5072132;28;20049;-56
2024/01/03 01:04:41;;;;;;;1.50;1.07;;;10.00;75.30;;;11.01;58.18;95864.53;5071854;28;20052;-56
2024/01/03 01:07:09;;;;;;;2.30;0.97;;;10.00;74.10;;;11.06;57.84;95878.06;5073416;28;20059;-56
2024/01/03 01:09:37;;;;;;;2.00;1.00;;;10.00;74.10;;;11.06;57.53;95878.06;5071746;28;20318;-56
2024/01/03 01:12:04;;;;;;;0.93;0.70;;;10.10;73.00;;;11.06;57.90;95880.72;5073611;28;20408;-57
2024/01/03 01:14:32;;;;;;;2.20;0.90;;;10.10;73.00;;;11.16;57.82;95898.94;5073633;28;20052;-56
2024/01/03 01:17:00;;;;;;;1.23;0.83;;;10.10;73.20;;;11.19;57.95;95874.56;5072105;28;20056;-57
2024/01/03 01:19:27;;;;;;;2.40;1.47;;;10.10;73.50;;;11.19;57.60;95870.03;5071706;28;20048;-57
2024/01/03 01:21:55;;;;;;;2.07;1.20;;;10.10;73.80;;;11.25;57.40;95880.91;5071859;28;20055;-58
2024/01/03 01:24:23;;;;;;;4.57;0.90;;;10.10;73.40;;;11.23;57.46;95884.56;5071432;28;20056;-57
2024/01/03 01:26:50;;;;;;;2.33;0.90;;;10.10;73.50;;;11.25;57.47;95880.91;5055281;28;20045;-58
2024/01/03 01:29:18;;;;;;;2.27;0.70;;;10.10;73.80;;;11.30;57.24;95916.53;5053853;28;20048;-56
2024/01/03 01:31:47;;;;;;;0.93;0.80;;;10.10;73.20;;;11.35;57.44;95882.09;5055226;28;20053;-58
2024/01/03 01:34:15;;;;;;;2.77;1.60;;;10.20;73.60;;;11.39;57.66;95885.97;5071989;28;20053;-58
2024/01/03 01:36:45;;;;;;;1.37;0.80;;;10.20;73.50;;;11.39;57.26;95888.63;5072776;28;20045;-57
2024/01/03 01:39:13;;;;;;;2.73;0.97;;;10.20;72.70;;;11.45;56.61;95875.50;5070879;28;20096;-58
2024/01/03 01:41:41;;;;;;;1.70;0.80;;;10.30;72.80;;;11.48;56.59;95883.09;5070849;28;20040;-58
2024/01/03 01:44:09;;;;;;;3.23;0.77;;;10.30;72.50;;;11.40;56.49;95882.28;5070840;28;20049;-58
2024/01/03 01:46:39;;;;;;;1.77;0.90;;;10.20;72.30;;;11.43;56.70;95905.84;5073009;28;20051;-58
2024/01/03 01:49:09;;;;;;;1.57;0.90;;;10.20;72.90;;;11.39;57.01;95893.97;5071920;28;20416;-58
2024/01/03 01:51:39;;;;;;;1.97;1.00;;;10.20;73.20;;;11.35;57.31;95897.25;5079650;28;20045;-57
2024/01/03 01:54:07;;;;;;;5.63;1.10;;;10.20;73.90;;;11.32;57.18;95895.84;5070972;28;20048;-58
2024/01/03 01:56:35;;;;;;;2.73;0.83;;;10.10;74.30;;;11.28;57.61;95904.44;5054920;28;20396;-59
2024/01/03 01:59:09;;;;;;;1.57;0.90;;;10.10;74.30;;;11.29;57.71;95908.75;5070568;28;20045;-58
2024/01/03 02:01:37;;;;;;;1.83;0.80;;;10.10;74.40;;;11.26;57.56;95917.16;5071282;28;20044;-58
2024/01/03 02:04:07;;;;;;;2.97;1.50;;;10.10;74.30;;;11.21;57.68;95920.44;5054242;28;20040;-58
2024/01/03 02:06:35;;;;;;;2.87;0.73;;;10.00;74.80;;;11.27;57.76;95914.28;5070996;28;20048;-58
2024/01/03 02:09:04;;;;;;;2.27;0.53;;;10.00;74.70;;;11.25;57.60;95908.34;5072038;28;20047;-58
2024/01/03 02:11:31;;;;;;;1.23;0.67;;;10.00;74.30;;;11.23;57.51;95913.06;5072498;28;20085;-58
2024/01/03 02:13:59;;;;;;;1.80;0.70;;;10.00;74.50;;;11.18;57.45;95911.00;5072278;28;20048;-57
2024/01/03 02:16:27;;;;;;;2.60;0.90;;;10.00;74.60;;;11.18;57.24;95910.19;5072098;28;20516;-58
2024/01/03 02:18:55;;;;;;;0.93;0.73;;;10.00;74.00;;;11.16;57.74;95920.25;5072435;28;20037;-58
2024/01/03 02:21:23;;;;;;;1.10;0.90;;;10.00;74.30;;;11.15;57.15;95891.97;5071889;28;20045;-57
2024/01/03 02:23:51;;;;;;;1.33;0.60;;;10.00;74.00;;;11.17;57.39;95887.25;5053844;28;20508;-58
2024/01/03 02:26:19;;;;;;;1.10;0.50;;;10.00;73.30;;;11.19;57.00;95902.00;5070256;28;20330;-59
2024/01/03 02:28:57;;;;;;;0.93;0.50;;;10.00;73.40;;;11.16;57.22;95889.09;5071886;28;20088;-58
2024/01/03 02:31:25;;;;;;;0.63;0.40;;;10.00;73.30;;;11.10;57.12;95879.28;5071928;28;20040;-58
2024/01/03 02:33:53;;;;;;;0.90;0.60;;;10.00;72.90;;;11.13;57.09;95886.84;5071971;28;20048;-59
2024/01/03 02:36:22;;;;;;;3.33;1.97;;;10.00;72.70;;;11.20;56.95;95906.28;5071637;28;20041;-58
2024/01/03 02:38:52;;;;;;;1.23;0.70;;;10.00;72.70;;;11.13;57.00;95900.19;5070563;28;20043;-58
2024/01/03 02:41:21;;;;;;;1.00;0.60;;;10.00;72.70;;;11.14;57.13;95923.09;5069995;28;20049;-59
2024/01/03 02:43:49;;;;;;;3.70;1.13;;;10.00;73.30;;;11.18;56.87;95920.84;5071985;28;20037;-58
2024/01/03 02:46:20;;;;;;;1.53;0.47;;;10.00;72.50;;;11.13;56.51;95916.16;5070729;28;20054;-58
2024/01/03 02:48:48;;;;;;;1.30;0.73;;;10.00;72.20;;;11.10;56.78;95924.53;5071861;28;20041;-57
2024/01/03 02:51:21;;;;;;;2.93;0.90;;;10.00;72.20;;;11.15;56.61;95905.28;5071325;28;20033;-57
2024/01/03 02:53:50;;;;;;;1.20;0.68;;;10.00;72.30;;;11.11;56.21;95904.03;5071415;28;20047;-59
2024/01/03 02:56:18;;;;;;;1.80;0.70;;;10.00;71.80;;;11.09;56.46;95911.44;5071509;28;20044;-58
2024/01/03 02:58:46;;;;;;;2.70;0.80;;;10.00;72.10;;;11.13;56.12;95904.69;5071101;28;20052;-58
2024/01/03 03:01:14;;;;;;;2.23;1.13;;;10.00;71.80;;;11.17;56.27;95904.06;5071180;28;20048;-58
2024/01/03 03:03:42;;;;;;;0.33;0.33;;;10.00;71.80;;;11.13;56.37;95899.38;5070226;28;20036;-58
2024/01/03 03:06:10;;;;;;;2.10;0.60;;;10.00;71.60;;;11.02;56.08;95914.13;5071332;28;20045;-57
2024/01/03 03:08:38;;;;;;;0.97;0.70;;;10.00;70.90;;;11.05;55.98;95895.06;5071135;28;20036;-58
2024/01/03 03:11:07;;;;;;;2.77;0.80;;;9.90;71.10;;;11.09;56.22;95896.28;5071002;28;20040;-58
2024/01/03 03:13:35;;;;;;;0.63;0.60;;;9.90;70.70;;;11.14;55.61;95932.94;5063007;28;20032;-57
2024/01/03 03:16:03;;;;;;;2.00;0.80;;;10.00;71.00;;;11.09;56.07;95916.75;5069561;28;20044;-58
2024/01/03 03:18:31;;;;;;;4.33;0.70;;;10.00;70.80;;;11.10;55.93;95883.78;5071092;28;20049;-57
2024/01/03 03:21:00;;;;;;;2.27;0.80;;;10.00;70.10;;;11.09;55.64;95888.31;5070851;28;20488;-57
2024/01/03 03:23:28;;;;;;;2.80;0.90;;;10.10;70.20;;;11.15;55.14;95889.31;5070502;28;20056;-58
2024/01/03 03:25:56;;;;;;;1.43;0.80;;;10.20;69.20;;;11.14;55.36;95885.00;5071127;28;20059;-58
2024/01/03 03:28:23;;;;;;;6.50;1.23;;;10.10;69.80;;;11.10;55.17;95903.25;5070921;28;20048;-58
2024/01/03 03:30:51;;;;;;;4.57;1.27;;;10.10;69.20;;;11.11;55.00;95896.06;5070742;28;20044;-59
2024/01/03 03:33:19;;;;;;;1.33;0.70;;;10.10;69.20;;;11.10;55.22;95897.91;5070712;28;20044;-59
2024/01/03 03:35:47;;;;;;;0.73;0.43;;;10.10;69.90;;;11.08;55.18;95885.84;5071112;28;20049;-57
2024/01/03 03:38:15;;;;;;;3.67;1.27;;;10.10;69.00;;;11.13;55.47;95899.38;5070925;28;20518;-58
2024/01/03 03:40:43;;;;;;;2.07;0.93;;;10.10;69.70;;;11.12;55.14;95908.38;5070522;28;20036;-58
2024/01/03 03:43:11;;;;;;;4.30;1.00;;;10.10;69.50;;;11.14;54.98;95907.13;5070592;28;20048;-58
2024/01/03 03:45:38;;;;;;;0.57;0.47;;;10.00;69.00;;;11.13;55.15;95912.69;5070059;28;20040;-58
2024/01/03 03:48:07;;;;;;;2.67;0.80;;;10.10;68.80;;;11.13;54.80;95894.84;5070796;28;20040;-58
2024/01/03 03:50:35;;;;;;;0.67;0.60;;;10.00;68.50;;;11.17;55.03;95908.56;5070296;28;20445;-57
2024/01/03 03:53:04;;;;;;;3.47;1.37;;;10.10;69.20;;;11.11;54.30;95893.41;5069054;28;20033;-58
2024/01/03 03:55:32;;;;;;;2.07;1.00;;;10.10;67.70;;;11.07;54.02;95887.69;5070687;28;20496;-58
2024/01/03 03:57:59;;;;;;;3.23;0.80;;;10.10;66.40;;;11.09;54.04;95882.13;5070953;28;20208;-58
2024/01/03 04:00:27;;;;;;;1.37;0.80;;;10.10;66.50;;;11.13;53.44;95878.06;5070357;28;20051;-58
2024/01/03 04:02:55;;;;;;;2.77;0.73;;;10.10;65.70;;;11.09;53.36;95877.66;5070601;28;20412;-58
2024/01/03 04:05:23;;;;;;;6.53;1.00;;;10.10;65.70;;;11.13;52.96;95889.53;5069124;28;20040;-58
2024/01/03 04:07:51;;;;;;;1.63;0.83;;;10.10;64.70;;;11.11;52.89;95874.75;5070757;28;20512;-59
2024/01/03 04:10:19;;;;;;;4.17;1.50;;;10.10;64.30;;;11.09;52.75;95885.63;5070244;28;20138;-58
2024/01/03 04:12:47;;;;;;;3.03;1.37;;;10.10;64.60;;;11.13;52.31;95881.53;5085740;28;20044;-58
2024/01/03 04:15:15;;;;;;;4.20;1.80;;;10.10;64.30;;;11.08;52.38;95902.63;5070613;28;20416;-58
2024/01/03 04:17:43;;;;;;;1.40;1.07;;;10.10;64.60;;;11.17;52.69;95890.75;5070779;28;20048;-59
2024/01/03 04:20:11;;;;;;;6.90;2.50;;;10.10;64.10;;;11.15;52.27;95879.47;5070099;28;20036;-58
2024/01/03 04:22:44;;;;;;;2.33;1.03;;;10.10;63.90;;;11.20;52.00;95892.16;5070374;28;20045;-58
2024/01/03 04:25:12;;;;;;;2.73;0.90;;;10.20;64.10;;;11.18;51.93;95899.53;5069313;28;20040;-59
2024/01/03 04:27:40;;;;;;;2.17;0.70;;;10.10;63.50;;;11.14;51.95;95887.66;5070566;28;20044;-58
2024/01/03 04:30:08;;;;;;;3.80;2.10;;;10.10;63.50;;;11.15;51.57;95894.66;5070303;28;20037;-58
2024/01/03 04:32:36;;;;;;;3.43;0.90;;;10.10;63.90;;;11.14;51.81;95879.69;5070425;28;20045;-58
2024/01/03 04:35:05;;;;;;;3.30;1.50;;;10.10;64.10;;;11.17;51.97;95890.75;5070456;28;20033;-58
2024/01/03 04:37:34;;;;;;;2.80;1.00;;;10.10;64.00;;;11.16;51.95;95902.41;5070172;28;20051;-58
2024/01/03 04:40:02;;;;;;;5.73;1.53;;;10.00;64.40;;;11.13;51.59;95899.38;5068408;28;20048;-59
2024/01/03 04:42:30;;;;;;;4.80;1.00;;;10.00;63.70;;;11.12;51.60;95893.19;5065974;28;20053;-58
2024/01/03 04:44:58;;;;;;;4.73;1.20;;;10.00;63.10;;;11.12;51.34;95903.84;5070584;28;20041;-59
2024/01/03 04:47:25;;;;;;;4.63;1.27;;;10.00;63.60;;;11.14;51.78;95901.78;5070221;28;20067;-59
2024/01/03 04:49:54;;;;;;;2.63;1.33;;;10.10;63.60;;;11.06;51.33;95923.31;5069948;28;20036;-59
2024/01/03 04:52:22;;;;;;;3.27;1.00;;;10.00;63.50;;;11.04;51.98;95934.16;5070056;28;20039;-59
2024/01/03 04:54:49;;;;;;;5.73;1.10;;;10.00;63.70;;;11.13;52.25;95920.66;5069200;28;20399;-59
2024/01/03 04:57:17;;;;;;;2.03;1.13;;;10.10;64.40;;;11.11;53.10;95934.19;5069909;28;20048;-58
2024/01/03 04:59:47;;;;;;;1.87;0.87;;;10.10;67.60;;;11.06;54.35;95933.97;5062129;28;20048;-59
2024/01/03 05:02:15;;;;;;;2.43;1.40;;;10.10;69.20;;;11.06;54.56;95917.19;5069737;28;20052;-58
2024/01/03 05:04:44;;;;;;;4.80;1.07;;;10.00;69.50;;;10.87;55.24;95946.25;5072549;28;20055;-59
2024/01/03 05:07:12;;;;;;;2.03;1.10;;;9.80;70.10;;;10.76;55.76;95936.22;5073807;28;20052;-59
2024/01/03 05:09:40;;;;;;;7.83;1.70;;;9.80;71.00;;;10.82;55.78;95940.75;5073403;28;20052;-60
2024/01/03 05:12:08;;;;;;;1.67;1.07;;;9.70;71.00;;;10.75;55.58;95938.06;5073582;28;20044;-60
2024/01/03 05:14:37;;;;;;;7.37;1.83;;;9.70;71.80;;;10.78;55.89;95936.84;5073483;28;20067;-58
2024/01/03 05:17:04;;;;;;;6.90;1.47;;;9.60;71.60;;;10.84;55.57;95952.81;5073676;28;20411;-59
2024/01/03 05:19:32;;;;;;;5.23;2.03;;;9.60;71.20;;;10.83;54.99;95948.50;5073214;28;20056;-59
2024/01/03 05:22:00;;;;;;;2.03;1.03;;;9.60;70.30;;;10.77;54.53;95936.00;5073560;28;20051;-59
2024/01/03 05:24:28;;;;;;;5.40;1.70;;;9.60;69.20;;;10.82;54.84;95932.75;5073275;28;20055;-59
2024/01/03 05:26:56;;;;;;;2.90;1.40;;;9.70;69.50;;;10.77;54.92;95946.66;5073347;28;20047;-59
2024/01/03 05:29:24;;;;;;;3.07;0.83;;;9.60;69.10;;;10.84;53.96;95934.19;5072655;28;20056;-59
2024/01/03 05:31:52;;;;;;;7.17;1.80;;;9.70;67.70;;;10.82;53.93;95938.09;5073316;28;20037;-59
2024/01/03 05:34:20;;;;;;;6.23;1.50;;;9.70;67.40;;;10.80;53.53;95943.59;5073136;28;20071;-60
2024/01/03 05:36:48;;;;;;;2.67;0.80;;;9.80;66.60;;;10.78;53.10;95936.84;5073385;28;20523;-59
2024/01/03 05:39:16;;;;;;;5.17;1.40;;;9.80;65.40;;;10.93;53.27;95955.28;5072695;28;20036;-59
2024/01/03 05:41:44;;;;;;;2.90;1.00;;;9.90;65.90;;;10.94;53.02;95956.94;5071916;28;20119;-59
2024/01/03 05:44:13;;;;;;;4.50;1.30;;;10.00;65.40;;;10.92;53.03;95945.66;5072589;28;20048;-59
2024/01/03 05:46:42;;;;;;;6.53;1.13;;;10.00;65.20;;;10.85;53.73;95935.00;5072131;28;20045;-59
2024/01/03 05:49:10;;;;;;;6.07;1.30;;;10.00;67.10;;;10.88;53.38;95947.09;5072479;28;20046;-59
2024/01/03 05:51:38;;;;;;;3.97;1.73;;;9.90;66.70;;;10.84;54.17;95963.47;5071138;28;20048;-59
2024/01/03 05:54:06;;;;;;;4.73;1.00;;;9.90;67.00;;;10.78;54.29;95958.16;5071195;28;20044;-59
2024/01/03 05:56:33;;;;;;;3.10;1.20;;;9.80;67.40;;;10.88;54.21;95969.22;5072746;28;20048;-59
2024/01/03 05:59:01;;;;;;;4.77;1.30;;;9.90;67.40;;;10.86;53.96;95976.59;5072674;28;20048;-58
2024/01/03 06:01:29;;;;;;;4.50;1.20;;;9.90;67.80;;;10.81;54.51;95973.69;5072875;28;20470;-58
2024/01/03 06:03:57;;;;;;;5.07;1.40;;;9.80;68.00;;;10.80;54.18;95964.09;5072796;28;20059;-58
2024/01/03 06:06:25;;;;;;;2.10;0.80;;;9.80;68.00;;;10.82;53.83;95960.19;5072607;28;20040;-58
2024/01/03 06:08:53;;;;;;;2.57;1.07;;;9.80;67.50;;;10.85;53.89;95966.94;5072711;28;20044;-58
2024/01/03 06:11:22;;;;;;;1.53;0.90;;;9.80;67.90;;;10.92;54.24;95974.94;5071021;28;20411;-58
2024/01/03 06:13:51;;;;;;;4.43;1.17;;;9.90;68.10;;;10.97;54.06;95968.00;5072035;28;20045;-58
2024/01/03 06:16:19;;;;;;;3.20;1.13;;;9.90;67.90;;;11.04;54.00;95979.44;5071003;28;20039;-58
2024/01/03 06:18:46;;;;;;;5.50;1.10;;;9.90;67.60;;;11.04;53.99;95975.97;5072036;28;20052;-58
2024/01/03 06:21:14;;;;;;;4.23;1.03;;;10.00;67.50;;;11.15;53.74;95990.53;5070963;28;20495;-58
2024/01/03 06:23:42;;;;;;;4.97;1.13;;;10.10;67.10;;;11.25;53.58;95982.13;5071922;28;20056;-58
2024/01/03 06:26:10;;;;;;;5.23;1.50;;;10.10;67.70;;;11.19;53.35;96018.38;5072156;28;20041;-58
2024/01/03 06:28:38;;;;;;;2.80;0.77;;;10.10;67.20;;;11.20;53.29;95988.03;5070884;28;20516;-58
2024/01/03 06:31:06;;;;;;;3.10;1.03;;;10.10;67.10;;;11.22;53.54;95973.53;5072390;28;20067;-58
2024/01/03 06:33:34;;;;;;;5.03;0.97;;;10.10;67.20;;;11.22;53.83;95983.34;5071925;28;20037;-59
2024/01/03 06:36:03;;;;;;;3.50;1.10;;;10.10;67.50;;;11.24;53.93;95991.94;5072265;28;20048;-59
2024/01/03 06:38:31;;;;;;;2.00;1.07;;;10.10;67.80;;;11.27;53.83;95980.88;5072055;28;20047;-59
2024/01/03 06:40:58;;;;;;;2.17;0.80;;;10.10;68.00;;;11.27;53.82;95980.06;5071691;28;20036;-59
2024/01/03 06:43:26;;;;;;;2.10;0.90;;;10.00;68.10;;;11.19;53.54;95967.78;5071668;28;20055;-58
2024/01/03 06:45:55;;;;;;;7.10;1.47;;;10.00;68.60;;;11.23;53.47;96009.78;5086942;28;20045;-58
2024/01/03 06:48:24;;;;;;;2.20;1.00;;;10.00;68.40;;;11.09;54.29;95968.19;5071893;28;20041;-58
2024/01/03 06:50:52;;;;;;;1.77;0.93;;;10.00;68.30;;;11.14;54.20;95979.03;5071615;28;20330;-59
2024/01/03 06:53:20;;;;;;;4.90;0.90;;;10.00;68.40;;;11.22;53.94;95989.50;5070599;28;20043;-59
2024/01/03 06:55:48;;;;;;;2.93;1.00;;;10.00;68.10;;;11.19;53.70;95981.09;5071887;28;20044;-59
2024/01/03 06:58:19;;;;;;;3.83;0.97;;;10.00;68.20;;;11.11;53.76;95976.78;5070480;28;20044;-59
2024/01/03 07:00:48;;;;;;;5.17;1.20;;;10.00;67.90;;;11.14;54.21;95979.03;5071204;28;20053;-59
2024/01/03 07:03:16;;;;;;;2.13;1.47;;;10.10;68.00;;;11.17;54.02;95959.19;5071502;28;20052;-58
2024/01/03 07:05:44;;;;;;;2.23;0.77;;;10.10;68.10;;;11.17;53.97;95973.31;5071309;28;20048;-59
2024/01/03 07:08:12;;;;;;;5.90;1.20;;;10.00;67.80;;;11.25;53.76;95958.97;5071150;28;20036;-59
2024/01/03 07:10:40;;;;;;;0.97;0.90;;;10.10;67.80;;;11.30;53.47;95984.97;5070927;28;20044;-58
2024/01/03 07:13:08;;;;;;;3.37;1.20;;;10.10;67.80;;;11.36;53.78;95966.31;5071223;28;20044;-58
2024/01/03 07:15:36;;;;;;;2.73;1.53;;;10.20;67.60;;;11.37;53.89;95970.63;5071473;28;20040;-57
2024/01/03 07:18:04;;;;;;;1.37;0.83;;;10.20;67.60;;;11.36;53.58;95966.31;5071319;28;20053;-58
2024/01/03 07:20:32;;;;;;;1.57;1.00;;;10.10;67.60;;;11.23;53.79;95977.00;5070991;28;20055;-58
2024/01/03 07:23:00;;;;;;;3.20;1.37;;;10.10;68.10;;;11.30;53.96;95985.81;5071230;28;20071;-58
2024/01/03 07:25:28;;;;;;;3.60;1.33;;;10.10;68.10;;;11.26;53.98;95978.41;5071175;28;20059;-58
2024/01/03 07:27:55;;;;;;;4.23;2.03;;;10.10;69.00;;;11.26;53.87;95984.56;5068972;28;20051;-57
2024/01/03 07:30:25;;;;;;;2.37;1.20;;;10.10;68.00;;;11.22;53.99;95989.50;5070724;28;20385;-58
2024/01/03 07:32:57;;;;;;;2.93;1.00;;;10.10;67.90;;;11.28;53.80;95987.84;5068961;28;20053;-58
2024/01/03 07:35:26;;;;;;;5.50;1.00;;;10.10;68.00;;;11.34;53.84;96012.84;5070942;28;20043;-58
2024/01/03 07:37:54;;;;;;;3.83;1.73;;;10.20;68.20;;;11.31;54.25;95998.09;5070908;28;20057;-58
2024/01/03 07:40:22;;;;;;;1.10;0.90;;;10.20;69.70;;;11.27;54.99;96002.19;5060654;28;20052;-59
2024/01/03 07:42:50;;;;;;;3.60;1.33;;;10.20;70.20;;;11.32;55.00;95996.25;5067169;28;20045;-58
2024/01/03 07:45:19;;;;;;;2.33;1.10;;;10.20;70.90;;;11.34;55.05;95992.38;5071046;28;20045;-57
2024/01/03 07:47:47;;;;;;;2.70;1.43;;;10.10;70.70;;;11.37;54.95;95991.13;5070830;28;20428;-58
2024/01/03 07:50:15;;;;;;;4.00;0.63;;;10.20;70.40;;;11.42;54.89;96002.00;5070316;28;20515;-57
2024/01/03 07:52:43;;;;;;;4.37;1.33;;;10.20;70.20;;;11.43;54.44;95983.09;5070397;28;20040;-57
2024/01/03 07:55:12;;;;;;;3.50;1.40;;;10.30;69.60;;;11.45;54.45;95996.22;5070920;28;20051;-57
2024/01/03 07:57:40;;;;;;;5.40;1.00;;;10.30;69.40;;;11.41;54.29;95987.81;5070368;28;20392;-57
2024/01/03 08:00:10;;;;;;;2.07;1.10;;;10.30;69.00;;;11.48;54.39;96008.34;5068994;28;20048;-58
2024/01/03 08:02:38;;;;;;;1.53;0.70;;;10.30;68.90;;;11.49;53.93;95985.97;5070502;28;20056;-59
2024/01/03 08:05:07;;;;;;;3.37;1.00;;;10.40;68.30;;;11.46;54.36;95986.38;5069462;28;20041;-57
2024/01/03 08:07:35;;;;;;;4.37;0.97;;;10.40;68.20;;;11.51;54.34;95978.59;5069123;28;20055;-59
2024/01/03 08:10:04;;;;;;;2.27;0.83;;;10.50;68.40;;;11.59;54.07;95978.38;5070337;28;20091;-59
2024/01/03 08:12:33;;;;;;;4.23;1.73;;;10.50;68.80;;;11.61;54.56;95981.63;5069581;28;20044;-59
2024/01/03 08:15:01;;;;;;;2.07;1.20;;;10.40;68.80;;;11.66;54.35;96002.34;5070370;28;20081;-58
2024/01/03 08:17:29;;;;;;;0.97;0.80;;;10.50;68.80;;;11.75;54.15;95996.59;5068998;28;20052;-59
2024/01/03 08:19:57;;;;;;;2.03;0.90;;;10.60;68.70;;;11.77;54.14;95996.41;5089280;28;20232;-58
2024/01/03 08:22:25;;;;;;;1.27;0.73;;;10.60;68.60;;;11.74;54.26;95992.28;5075942;28;20499;-58
2024/01/03 08:24:53;;;;;;;1.83;1.20;;;10.60;68.80;;;11.83;54.11;96001.69;5071087;28;20059;-57
2024/01/03 08:27:21;;;;;;;3.73;0.70;;;10.70;69.00;;;11.83;54.42;95979.56;5070724;28;20040;-56
2024/01/03 08:29:49;;;;;;;1.92;0.88;;;10.70;68.70;;;11.88;54.15;96003.72;5069084;28;20072;-58
2024/01/03 08:32:17;;;;;;;3.47;1.20;;;10.70;68.70;;;11.75;54.08;95985.13;5070223;28;20484;-58
2024/01/03 08:34:46;;;;;;;1.50;1.00;;;10.70;68.50;;;11.81;54.21;95971.75;5070410;28;20040;-58
2024/01/03 08:37:14;;;;;;;4.20;1.60;;;10.70;68.30;;;11.89;53.82;95994.75;5070811;28;20052;-58
2024/01/03 08:39:41;;;;;;;4.47;1.00;;;10.70;68.60;;;11.91;53.81;95987.34;5073857;28;20040;-57
2024/01/03 08:42:09;;;;;;;2.00;1.50;;;10.80;68.20;;;11.93;53.75;96001.28;5073293;28;20384;-56
2024/01/03 08:44:38;;;;;;;2.60;1.17;;;10.80;68.20;;;12.01;53.81;96016.25;5073950;28;20500;-57
2024/01/03 08:47:07;;;;;;;2.10;0.90;;;10.80;68.60;;;12.07;54.04;95993.25;5065199;28;20435;-57
2024/01/03 08:49:35;;;;;;;3.92;1.10;;;10.90;68.80;;;12.11;53.94;96010.47;5073812;28;20051;-56
2024/01/03 08:52:04;;;;;;;3.72;1.10;;;10.90;68.80;;;12.13;54.34;96014.56;5074140;28;20044;-57
2024/01/03 08:54:33;;;;;;;2.25;0.98;;;11.00;68.80;;;12.12;54.07;96020.94;5073944;28;20055;-57
2024/01/03 08:57:01;;;;;;;3.72;1.00;;;11.00;69.10;;;12.16;53.99;96011.47;5074058;28;20385;-57
2024/01/03 08:59:29;;;;;;;1.95;0.80;;;11.00;69.50;;;12.13;54.46;96003.88;5073304;28;20451;-56
2024/01/03 09:01:57;;;;;;;1.63;0.73;;;10.90;70.10;;;12.15;54.56;96004.50;5059788;28;20043;-57
2024/01/03 09:04:24;;;;;;;1.70;0.80;;;10.90;70.50;;;12.14;54.84;96018.06;5063185;28;20056;-56
2024/01/03 09:06:52;;;;;;;2.27;0.70;;;10.80;70.90;;;12.12;54.76;96015.59;5065533;28;20044;-57
2024/01/03 09:09:20;;;;;;;4.27;1.20;;;10.80;71.20;;;12.12;54.97;96015.59;5067983;28;20048;-57
2024/01/03 09:11:49;;;;;;;3.47;1.00;;;10.80;71.40;;;12.11;55.26;96005.13;5067430;28;20475;-57
2024/01/03 09:14:17;;;;;;;4.73;1.93;;;10.80;71.70;;;12.20;54.79;96007.34;5065246;28;20055;-58
2024/01/03 09:16:45;;;;;;;3.30;1.00;;;10.80;71.40;;;12.21;55.11;96011.69;5068398;28;20043;-57
2024/01/03 09:19:13;;;;;;;3.58;0.80;;;10.90;71.80;;;12.29;54.86;96007.94;5067768;28;20411;-57
2024/01/03 09:21:45;;;;;;;2.13;0.80;;;10.90;71.60;;;12.31;54.98;96010.38;5067417;28;20056;-57
2024/01/03 09:24:13;;;;;;;1.42;0.90;;;11.00;71.10;;;12.30;54.97;96016.75;5060357;28;20048;-57
2024/01/03 09:26:41;;;;;;;2.28;0.75;;;11.00;70.80;;;12.32;54.64;96015.50;5065717;28;20056;-57
2024/01/03 09:29:09;;;;;;;3.40;0.80;;;11.00;70.90;;;12.33;54.72;96011.81;5068052;28;20468;-57
2024/01/03 09:31:43;;;;;;;1.47;0.90;;;11.00;70.60;;;12.27;54.51;96004.69;5067892;28;20036;-57
2024/01/03 09:34:11;;;;;;;3.08;0.80;;;11.00;70.20;;;12.23;54.75;96015.97;5067523;28;20056;-58
2024/01/03 09:36:40;;;;;;;1.48;0.90;;;11.00;70.30;;;12.25;54.52;96022.72;5067089;28;20048;-57
2024/01/03 09:39:08;;;;;;;4.23;1.70;;;11.00;70.10;;;12.16;54.33;96018.66;5067247;28;20051;-58
2024/01/03 09:41:38;;;;;;;2.17;0.80;;;10.90;69.70;;;12.23;54.35;96029.31;5066934;28;20044;-58
2024/01/03 09:44:08;;;;;;;4.10;1.23;;;11.00;69.90;;;12.25;54.47;96016.56;5066479;28;20052;-57
2024/01/03 09:46:36;;;;;;;2.17;1.10;;;11.00;70.40;;;12.30;54.42;96019.44;5066891;28;20052;-57
2024/01/03 09:49:04;;;;;;;4.85;1.55;;;11.00;70.60;;;12.32;54.67;96010.19;5065710;28;20048;-57
2024/01/03 09:51:33;;;;;;;1.65;0.80;;;11.10;71.20;;;12.34;55.02;96012.63;5063244;28;20051;-57
2024/01/03 09:54:05;;;;;;;1.43;0.90;;;11.10;71.90;;;12.38;55.51;96021.84;5061523;28;20314;-56
2024/01/03 09:56:37;;;;;;;2.63;1.10;;;11.10;72.90;;;12.44;55.71;96029.00;5065497;28;20039;-57
2024/01/03 09:59:05;;;;;;;1.65;0.73;;;11.10;73.70;;;12.44;55.96;96039.69;5062611;28;20044;-56
2024/01/03 10:01:33;;;;;;;1.13;0.87;;;11.10;73.90;;;12.38;56.51;96043.19;5062047;28;20423;-57
2024/01/03 10:04:01;;;;;;;2.40;1.00;;;11.10;74.20;;;12.35;56.32;96046.31;5063389;28;20048;-58
2024/01/03 10:06:29;;;;;;;1.02;0.63;;;11.10;74.50;;;12.39;56.17;96036.84;5067770;28;20044;-57
2024/01/03 10:09:02;;;;;;;2.45;0.95;;;11.10;74.20;;;12.35;56.45;96043.66;5063557;28;20488;-58
2024/01/03 10:11:31;;;;;;;;;;;11.00;74.10;;;12.35;56.28;96043.66;5064495;28;20056;-57
2024/01/03 10:14:18;;;;;;;4.37;1.10;;;11.00;74.90;;;12.33;56.77;96049.19;5062002;28;20316;-57
2024/01/03 10:16:47;;;;;;;1.03;0.60;;;11.00;75.80;;;12.34;56.80;96039.31;5043505;28;20053;-57
2024/01/03 10:19:18;;;;;;;1.10;0.80;;;10.90;76.10;;;12.32;56.91;96036.84;5062997;28;20052;-57
2024/01/03 10:21:50;;;;;;;1.23;0.70;;;10.90;76.90;;;12.30;57.32;96025.56;5065714;28;20043;-57
2024/01/03 10:24:24;;;;;;;1.40;0.67;;;10.80;77.40;;;12.21;57.64;96030.34;5051001;28;20045;-57
2024/01/03 10:26:53;;;;;;;1.23;0.80;;;10.70;78.90;;;12.24;57.66;96030.97;5067029;28;20041;-56